< < Back
Terminal Aerodrome Forecast


Current Version              Previous Versions:   1  2  3  4  5  6  7  8  9  

Terminal Aerodrome Forecast

792
FTUS42 KFFC 120818 AAA
TAFPDK
TAF AMD
KPDK 120818Z 1208/1306 00000KT P6SM SCT070 BKN150
     FM121100 00000KT P6SM BKN040
     FM121500 VRB03KT P6SM BKN025
     FM121800 27006KT P6SM BKN035
     FM122100 28010G18KT P6SM SCT040
     FM130400 31011G20KT P6SM FEW050=

Latest METAR

419
SAUS70 KWBC 121400 RRF
MTRPDK
METAR KPDK 121353Z VRB04KT 10SM BKN049 04/M04 A3014 RMK AO2 SLP215
T00441039


USA.gov is the U.S. government's official web portal to all federal, state and local government web resources and services.